Time;durP1;ratioP1;P1;durP2;ratioP2;P2;SDS_P1;SDS_P2;PMS_P1;PMS_P2;Temp;Humidity;BMP_temperature;BMP_pressure;BME280_temperature;BME280_humidity;BME280_pressure;Samples;Min_cycle;Max_cycle;Signal;HPM_P1;HPM_P2
2021/07/20 00:04:08;;;;;;;16.30;9.40;;;;;;;13.40;80.66;102063.38;10463483;28;20404;-60
2021/07/20 00:09:23;;;;;;;15.85;9.75;;;;;;;13.44;81.27;102067.59;10462037;28;20507;-63
2021/07/20 00:14:25;;;;;;;15.73;10.13;;;;;;;13.29;81.62;102074.41;10463481;28;20052;-61
2021/07/20 00:19:27;;;;;;;14.32;9.35;;;;;;;13.16;81.62;102064.50;10463393;28;20057;-62
2021/07/20 00:24:30;;;;;;;18.85;9.80;;;;;;;13.34;81.05;102068.03;10462834;28;20056;-60
2021/07/20 00:29:32;;;;;;;18.30;9.13;;;;;;;13.18;81.70;102062.63;10462845;28;20060;-59
2021/07/20 00:34:34;;;;;;;13.57;8.82;;;;;;;13.17;81.38;102070.59;10462321;28;20045;-59
2021/07/20 00:39:37;;;;;;;14.52;8.65;;;;;;;13.31;80.77;102075.19;10462067;28;20409;-58
2021/07/20 00:44:39;;;;;;;16.90;9.57;;;;;;;13.15;81.47;102073.31;10461957;28;20060;-58
2021/07/20 00:49:42;;;;;;;16.48;10.52;;;;;;;12.97;82.25;102066.28;10461065;28;20041;-58
2021/07/20 00:54:44;;;;;;;15.23;9.60;;;;;;;13.15;81.27;102065.41;10461635;28;20052;-58
2021/07/20 00:59:46;;;;;;;15.88;9.77;;;;;;;12.90;82.79;102073.63;10461214;28;20048;-58
2021/07/20 01:04:49;;;;;;;18.88;10.55;;;;;;;12.90;81.94;102057.84;10460329;28;20045;-60
2021/07/20 01:09:52;;;;;;;17.23;9.68;;;;;;;13.00;82.05;102053.84;10459911;28;20045;-58
2021/07/20 01:14:55;;;;;;;20.92;10.60;;;;;;;12.75;83.12;102048.06;10460381;28;20057;-58
2021/07/20 01:19:58;;;;;;;24.08;10.93;;;;;;;12.63;82.96;102045.06;10459009;28;20448;-59
2021/07/20 01:25:01;;;;;;;14.20;9.30;;;;;;;13.06;81.24;102054.47;10459345;28;20052;-59
2021/07/20 01:30:05;;;;;;;18.63;10.25;;;;;;;12.68;81.93;102044.84;10460307;28;20041;-60
2021/07/20 01:35:08;;;;;;;17.00;10.07;;;;;;;12.73;82.62;102047.28;10458862;28;20508;-59
2021/07/20 01:40:12;;;;;;;18.98;10.77;;;;;;;12.58;83.17;102048.84;10458624;28;20058;-59
2021/07/20 01:45:14;;;;;;;15.15;9.45;;;;;;;12.64;82.23;102054.66;10458518;28;20057;-59
2021/07/20 01:50:18;;;;;;;17.17;10.60;;;;;;;12.42;83.12;102049.53;10459293;28;20114;-61
2021/07/20 01:55:24;;;;;;;19.42;11.07;;;;;;;12.51;82.81;102047.38;10458516;28;20044;-59
2021/07/20 02:00:27;;;;;;;20.65;11.25;;;;;;;12.37;82.88;102054.16;10458169;28;20052;-59
2021/07/20 02:10:53;;;;;;;20.02;10.52;;;;;;;12.41;84.03;102055.69;10458745;28;20045;-58
2021/07/20 02:15:56;;;;;;;18.80;10.65;;;;;;;12.23;83.89;102056.53;10457179;28;20041;-59
2021/07/20 02:21:01;;;;;;;17.88;10.15;;;;;;;12.30;83.89;102063.19;10458147;28;20064;-59
2021/07/20 02:26:04;;;;;;;22.45;11.23;;;;;;;12.25;83.93;102057.31;10456786;28;20078;-61
2021/07/20 02:31:08;;;;;;;24.77;11.57;;;;;;;12.19;83.79;102055.81;10456857;28;20052;-60
2021/07/20 02:36:11;;;;;;;19.77;10.70;;;;;;;12.34;83.73;102048.16;10456880;28;20413;-59
2021/07/20 02:41:14;;;;;;;19.02;11.77;;;;;;;12.18;83.64;102050.63;10456281;28;20052;-59
2021/07/20 02:46:17;;;;;;;24.63;11.98;;;;;;;12.22;83.41;102050.44;10456234;28;20045;-59
2021/07/20 02:51:20;;;;;;;19.67;11.77;;;;;;;12.02;84.03;102040.81;10456625;28;20166;-59
2021/07/20 02:56:23;;;;;;;19.48;11.05;;;;;;;12.37;82.34;102045.38;10457130;28;20041;-58
2021/07/20 03:01:27;;;;;;;23.67;13.25;;;;;;;12.18;83.96;102046.22;10456285;28;20067;-59
2021/07/20 03:06:30;;;;;;;21.95;11.00;;;;;;;12.08;83.84;102048.38;10455514;28;20052;-58
2021/07/20 03:11:39;;;;;;;23.48;12.60;;;;;;;12.15;83.65;102053.38;10455919;28;20044;-59
2021/07/20 03:16:42;;;;;;;24.58;12.25;;;;;;;11.99;83.88;102056.69;10455658;28;20049;-59
2021/07/20 03:21:47;;;;;;;21.60;11.57;;;;;;;12.10;83.79;102064.06;10455301;28;20497;-60
2021/07/20 03:26:51;;;;;;;22.95;12.18;;;;;;;12.03;83.46;102057.41;10455122;28;20049;-60
2021/07/20 03:31:54;;;;;;;26.33;14.20;;;;;;;11.98;83.17;102049.72;10455176;28;20049;-58
2021/07/20 03:36:56;;;;;;;24.42;13.15;;;;;;;12.01;83.65;102056.63;10454872;28;20505;-61
2021/07/20 03:42:00;;;;;;;22.48;12.38;;;;;;;11.96;84.30;102058.59;10454986;28;20056;-59
2021/07/20 03:47:03;;;;;;;28.50;13.88;;;;;;;11.88;84.00;102057.13;10454571;28;20408;-60
2021/07/20 03:52:06;;;;;;;22.75;12.00;;;;;;;12.06;83.64;102060.72;10454845;28;20045;-61
2021/07/20 03:57:09;;;;;;;29.80;14.32;;;;;;;11.84;84.33;102062.56;10454450;28;20053;-60
2021/07/20 04:02:13;;;;;;;28.25;13.45;;;;;;;11.96;84.08;102058.59;10454962;28;20095;-60
2021/07/20 04:07:18;;;;;;;26.48;13.20;;;;;;;11.88;84.50;102070.25;10454488;28;20041;-60
2021/07/20 04:12:21;;;;;;;31.98;14.00;;;;;;;12.07;83.83;102067.69;10455835;28;20045;-61
2021/07/20 04:17:24;;;;;;;24.40;12.35;;;;;;;11.98;83.28;102069.88;10455203;28;20467;-61
2021/07/20 04:22:26;;;;;;;29.58;14.10;;;;;;;11.93;84.11;102067.44;10454026;28;20064;-60
2021/07/20 04:27:29;;;;;;;26.88;13.27;;;;;;;12.05;84.52;102069.53;10461404;28;20056;-60
2021/07/20 04:32:32;;;;;;;27.13;13.77;;;;;;;11.95;84.50;102070.00;10461434;28;20056;-59
2021/07/20 04:37:35;;;;;;;28.88;12.57;;;;;;;12.13;84.33;102065.72;10461542;28;20041;-61
2021/07/20 04:42:38;;;;;;;25.08;12.77;;;;;;;12.08;84.81;102076.41;10444684;28;20056;-62
2021/07/20 04:47:41;;;;;;;31.15;12.77;;;;;;;12.23;83.91;102080.16;10462348;28;20052;-60
2021/07/20 04:52:44;;;;;;;24.25;12.48;;;;;;;12.31;85.16;102079.81;10461880;28;20044;-60
2021/07/20 04:57:47;;;;;;;23.40;11.93;;;;;;;12.35;84.45;102073.50;10460407;28;20045;-60
2021/07/20 05:02:50;;;;;;;22.73;11.70;;;;;;;12.73;83.99;102081.44;10460480;28;20048;-61
2021/07/20 05:07:53;;;;;;;25.30;12.50;;;;;;;12.63;84.39;102073.97;10459969;28;20045;-61
2021/07/20 05:12:58;;;;;;;25.95;13.13;;;;;;;12.90;83.84;102083.28;10460056;28;20053;-60
2021/07/20 05:18:01;;;;;;;28.23;13.63;;;;;;;12.85;84.26;102085.28;10459559;28;20045;-60
2021/07/20 05:23:03;;;;;;;25.90;12.93;;;;;;;13.06;84.33;102076.34;10459439;28;20068;-60
2021/07/20 05:28:06;;;;;;;27.70;13.38;;;;;;;13.16;84.02;102071.50;10459174;28;20056;-60
2021/07/20 05:33:09;;;;;;;23.90;12.95;;;;;;;13.18;83.09;102078.41;10460898;28;20049;-61
2021/07/20 05:38:11;;;;;;;27.75;13.57;;;;;;;13.39;84.04;102073.06;10458301;28;20511;-60
2021/07/20 05:43:14;;;;;;;29.42;13.85;;;;;;;13.40;83.44;102085.31;10458716;28;20051;-61
2021/07/20 05:48:19;;;;;;;30.83;14.65;;;;;;;13.52;82.77;102087.31;10458266;28;20052;-62
2021/07/20 05:53:28;;;;;;;29.58;14.80;;;;;;;13.35;83.99;102096.03;10458173;28;20489;-60
2021/07/20 05:58:31;;;;;;;24.17;12.40;;;;;;;13.67;80.94;102090.13;10458912;28;20400;-60
2021/07/20 06:03:35;;;;;;;25.60;13.80;;;;;;;13.77;81.59;102095.78;10458896;28;20488;-61
2021/07/20 06:08:39;;;;;;;26.08;14.23;;;;;;;13.76;80.90;102092.28;10457426;28;20049;-61
2021/07/20 06:13:42;;;;;;;22.98;12.85;;;;;;;14.10;80.22;102101.09;10457333;28;20532;-60
2021/07/20 06:18:44;;;;;;;23.98;12.30;;;;;;;14.27;79.87;102105.50;10456828;28;20061;-61
2021/07/20 06:23:48;;;;;;;22.75;11.25;;;;;;;14.31;79.63;102107.91;10458672;28;20049;-60
2021/07/20 06:28:57;;;;;;;23.85;12.60;;;;;;;14.58;78.01;102107.38;10456656;28;20080;-59
2021/07/20 06:34:00;;;;;;;25.70;12.85;;;;;;;14.53;77.99;102098.03;10456727;28;20049;-61
2021/07/20 06:39:04;;;;;;;17.85;11.18;;;;;;;14.79;78.36;102108.03;10456339;28;20052;-61
2021/07/20 06:44:07;;;;;;;19.67;10.60;;;;;;;15.02;76.30;102111.19;10457315;28;20049;-60
2021/07/20 06:49:11;;;;;;;19.17;10.10;;;;;;;14.95;77.10;102105.41;10456833;28;20040;-60
2021/07/20 06:54:14;;;;;;;19.85;10.02;;;;;;;15.54;74.51;102099.50;10457108;28;20041;-60
2021/07/20 06:59:18;;;;;;;17.52;10.93;;;;;;;15.46;75.51;102109.63;10455455;28;20410;-60
2021/07/20 07:04:42;;;;;;;18.33;10.82;;;;;;;15.54;75.08;102116.16;10455720;28;20053;-61
2021/07/20 07:09:45;;;;;;;17.60;11.43;;;;;;;15.92;72.74;102122.81;10455896;28;20049;-59
2021/07/20 07:14:48;;;;;;;15.68;10.45;;;;;;;16.07;71.30;102121.94;10456527;28;20500;-59
2021/07/20 07:19:52;;;;;;;20.45;11.38;;;;;;;16.69;70.73;102121.69;10455320;28;20053;-60
2021/07/20 07:24:55;;;;;;;21.00;10.80;;;;;;;17.19;68.40;102119.44;10455343;28;20405;-60
2021/07/20 07:29:57;;;;;;;18.48;11.35;;;;;;;17.40;68.04;102129.56;10454991;28;20374;-61
2021/07/20 07:35:00;;;;;;;18.17;12.40;;;;;;;17.95;66.84;102127.75;10455427;28;20045;-61
2021/07/20 07:40:05;;;;;;;22.15;11.45;;;;;;;18.12;64.31;102127.47;10455827;28;20098;-60
2021/07/20 07:45:09;;;;;;;15.32;10.38;;;;;;;18.53;63.97;102130.84;10454744;28;20049;-61
2021/07/20 07:50:12;;;;;;;15.35;10.35;;;;;;;19.12;63.56;102125.75;10438373;28;20409;-60
2021/07/20 07:55:16;;;;;;;14.18;9.77;;;;;;;18.29;66.20;102118.34;10455768;28;20040;-61
2021/07/20 08:00:19;;;;;;;12.52;7.82;;;;;;;18.23;58.78;102120.59;10458928;28;20057;-59
2021/07/20 08:05:23;;;;;;;12.80;9.65;;;;;;;19.32;58.93;102115.50;10462887;28;20049;-60
2021/07/20 08:10:25;;;;;;;11.05;9.20;;;;;;;18.69;60.29;102131.47;10446154;28;20049;-59
2021/07/20 08:15:28;;;;;;;12.48;8.27;;;;;;;18.64;55.29;102133.59;10461990;28;20509;-61
2021/07/20 08:20:32;;;;;;;12.40;8.63;;;;;;;18.59;59.10;102130.41;10462702;28;20424;-61
2021/07/20 08:25:42;;;;;;;11.38;8.82;;;;;;;20.21;56.17;102122.09;10461699;28;20071;-60
2021/07/20 08:30:47;;;;;;;9.47;7.63;;;;;;;20.15;52.70;102121.72;10462717;28;20053;-60
2021/07/20 08:35:53;;;;;;;12.25;8.20;;;;;;;19.81;51.19;102126.94;10462288;28;20055;-61
2021/07/20 08:40:59;;;;;;;11.77;9.25;;;;;;;19.54;54.22;102129.84;10461633;28;20048;-61
2021/07/20 08:46:19;;;;;;;10.30;8.40;;;;;;;20.29;51.60;102133.94;10461953;28;20481;-60
2021/07/20 08:51:57;;;;;;;12.80;9.10;;;;;;;20.74;52.59;102131.31;10462015;28;20091;-61
2021/07/20 08:57:02;;;;;;;10.02;7.95;;;;;;;22.10;51.44;102133.53;10461629;28;20127;-60
2021/07/20 09:02:29;;;;;;;10.82;9.07;;;;;;;21.08;50.32;102133.91;10460508;28;20045;-60
2021/07/20 09:07:40;;;;;;;10.38;8.40;;;;;;;21.42;49.10;102140.00;10460038;28;20106;-61
2021/07/20 09:12:44;;;;;;;;;;;;;;;20.36;51.46;102136.00;10461630;28;20055;-61
2021/07/20 09:18:02;;;;;;;10.90;8.95;;;;;;;21.42;49.09;102129.34;10459470;28;20276;-60
2021/07/20 09:23:09;;;;;;;13.43;8.68;;;;;;;20.58;50.61;102140.47;10460716;28;20100;-65
2021/07/20 09:28:21;;;;;;;10.45;8.45;;;;;;;22.53;50.84;102146.69;10459363;28;20053;-61
2021/07/20 09:33:45;;;;;;;10.25;8.52;;;;;;;22.88;45.34;102140.09;10460350;28;20049;-60
2021/07/20 09:38:58;;;;;;;11.48;8.63;;;;;;;23.03;46.33;102137.00;10458973;28;20048;-63
2021/07/20 09:44:25;;;;;;;10.18;7.72;;;;;;;20.82;51.27;102138.69;10459009;28;20048;-62
2021/07/20 09:49:57;;;;;;;14.45;8.93;;;;;;;21.82;48.18;102135.84;10459261;28;20045;-61
2021/07/20 09:55:07;;;;;;;9.45;8.23;;;;;;;22.86;45.73;102136.69;10459457;28;20080;-61
2021/07/20 10:00:22;;;;;;;9.48;7.85;;;;;;;21.72;44.37;102133.16;10459280;28;20053;-61
2021/07/20 10:05:33;;;;;;;9.88;7.90;;;;;;;21.18;49.47;102137.53;10458382;28;20428;-60
2021/07/20 10:10:45;;;;;;;10.10;8.27;;;;;;;23.08;47.67;102135.66;10458676;28;20057;-59
2021/07/20 10:16:00;;;;;;;8.50;7.60;;;;;;;23.89;46.56;102123.88;10457507;28;20444;-61
2021/07/20 10:21:03;;;;;;;10.90;7.80;;;;;;;23.09;46.68;102134.66;10457166;28;20049;-60
2021/07/20 10:26:16;;;;;;;7.57;6.70;;;;;;;23.26;46.71;102124.28;10457872;28;20378;-61
2021/07/20 10:31:24;;;;;;;10.68;8.20;;;;;;;21.89;43.93;102124.56;10457164;28;20049;-60
2021/07/20 10:36:30;;;;;;;13.95;8.40;;;;;;;23.85;43.28;102122.47;10456807;28;20045;-61
2021/07/20 10:41:37;;;;;;;8.40;7.32;;;;;;;24.72;43.23;102117.84;10456320;28;20497;-60
2021/07/20 10:46:41;;;;;;;10.25;8.35;;;;;;;24.27;42.29;102114.06;10456379;28;20057;-61
2021/07/20 10:51:47;;;;;;;9.20;7.10;;;;;;;24.23;45.04;102120.69;10456802;28;20170;-61
2021/07/20 10:57:03;;;;;;;13.27;8.10;;;;;;;24.35;45.15;102116.84;10456263;28;20051;-61
2021/07/20 11:02:27;;;;;;;11.25;8.20;;;;;;;24.47;42.60;102120.19;10455945;28;20059;-60
2021/07/20 11:07:44;;;;;;;12.85;8.20;;;;;;;24.38;43.46;102113.03;10455855;28;20111;-61
2021/07/20 11:12:52;;;;;;;15.05;8.55;;;;;;;24.88;41.53;102106.47;10456739;28;20052;-60
2021/07/20 11:17:59;;;;;;;14.82;8.00;;;;;;;26.11;41.77;102110.25;10456882;28;20052;-60
2021/07/20 11:23:06;;;;;;;10.27;8.38;;;;;;;23.94;45.81;102108.25;10455490;28;20144;-61
2021/07/20 11:28:08;;;;;;;11.25;7.97;;;;;;;25.02;39.19;102100.59;10455377;28;20056;-61
2021/07/20 11:33:26;;;;;;;11.27;7.93;;;;;;;24.73;42.13;102120.38;10457794;28;20045;-61
2021/07/20 11:38:45;;;;;;;8.65;7.40;;;;;;;23.29;43.14;102118.69;10464963;28;20091;-63
2021/07/20 11:44:01;;;;;;;9.50;7.45;;;;;;;27.12;40.74;102111.28;10464626;28;20052;-62
2021/07/20 11:49:08;;;;;;;9.35;7.10;;;;;;;27.38;40.76;102105.81;10464328;28;20045;-62
2021/07/20 11:54:30;;;;;;;11.57;7.97;;;;;;;24.06;42.88;102112.44;10463854;28;20049;-60
2021/07/20 12:00:08;;;;;;;9.93;7.20;;;;;;;26.31;42.54;102103.66;10462491;28;20511;-61
2021/07/20 12:05:41;;;;;;;10.27;6.90;;;;;;;26.36;40.20;102100.47;10463037;28;20053;-62
2021/07/20 12:11:01;;;;;;;7.95;7.15;;;;;;;25.51;41.12;102087.66;10463625;28;20052;-62
2021/07/20 12:16:13;;;;;;;9.88;7.93;;;;;;;27.50;38.90;102092.88;10461927;28;20493;-61
2021/07/20 12:21:17;;;;;;;11.15;7.88;;;;;;;25.62;39.91;102086.59;10461777;28;20053;-61
2021/07/20 12:26:24;;;;;;;12.40;7.60;;;;;;;24.23;46.53;102094.78;10461904;28;20060;-60
2021/07/20 12:31:31;;;;;;;8.52;7.43;;;;;;;27.00;37.52;102092.81;10461648;28;20052;-62
2021/07/20 12:36:35;;;;;;;9.32;7.28;;;;;;;25.94;39.60;102077.91;10462454;28;20048;-62
2021/07/20 12:41:51;;;;;;;11.45;7.88;;;;;;;26.54;39.12;102084.25;10462484;28;20047;-61
2021/07/20 12:47:11;;;;;;;9.98;7.95;;;;;;;26.42;38.37;102094.44;10461082;28;20520;-61
2021/07/20 12:52:14;;;;;;;10.15;8.68;;;;;;;26.66;39.63;102083.00;10462120;28;20138;-60
2021/07/20 12:57:19;;;;;;;9.77;8.13;;;;;;;26.36;38.08;102084.38;10462138;28;20049;-60
2021/07/20 13:02:41;;;;;;;9.13;7.78;;;;;;;27.92;40.15;102084.59;10461499;28;20049;-61
2021/07/20 13:07:44;;;;;;;9.20;7.93;;;;;;;26.68;38.60;102086.38;10460122;28;20064;-60
2021/07/20 13:12:49;;;;;;;13.90;8.63;;;;;;;25.87;40.23;102079.56;10461188;28;20049;-62
2021/07/20 13:17:52;;;;;;;11.07;8.32;;;;;;;25.25;38.81;102082.25;10461008;28;20049;-62
2021/07/20 13:22:55;;;;;;;14.38;8.38;;;;;;;25.10;41.55;102083.75;10460829;28;20056;-61
2021/07/20 13:27:57;;;;;;;15.57;8.65;;;;;;;25.66;39.95;102079.06;10460458;28;20056;-61
2021/07/20 13:33:00;;;;;;;9.00;7.95;;;;;;;26.19;40.01;102080.75;10460480;28;20084;-63
2021/07/20 13:38:03;;;;;;;14.45;8.13;;;;;;;26.01;39.43;102080.84;10460081;28;20514;-60
2021/07/20 13:43:06;;;;;;;10.20;7.82;;;;;;;24.98;43.22;102070.59;10459262;28;20056;-60
2021/07/20 13:48:09;;;;;;;12.07;8.30;;;;;;;27.56;36.51;102073.38;10459001;28;20048;-60
2021/07/20 13:53:12;;;;;;;10.38;7.85;;;;;;;25.94;36.05;102075.25;10458438;28;20048;-61
2021/07/20 13:58:16;;;;;;;10.35;8.40;;;;;;;26.80;38.52;102067.25;10458937;28;20049;-62
2021/07/20 14:03:20;;;;;;;9.88;8.32;;;;;;;25.51;37.06;102076.09;10458025;28;20059;-61
2021/07/20 14:08:23;;;;;;;7.80;6.78;;;;;;;26.56;39.06;102078.72;10457520;28;20541;-61
2021/07/20 14:13:26;;;;;;;8.63;7.35;;;;;;;28.59;35.27;102069.91;10458754;28;20067;-61
2021/07/20 14:18:31;;;;;;;10.32;6.90;;;;;;;26.44;37.16;102068.28;10457620;28;20049;-61
2021/07/20 14:23:40;;;;;;;8.73;6.82;;;;;;;27.55;35.80;102056.38;10458509;28;20088;-58
2021/07/20 14:28:43;;;;;;;8.85;6.60;;;;;;;26.65;38.88;102064.38;10457903;28;20049;-60
2021/07/20 14:33:46;;;;;;;8.73;5.75;;;;;;;26.79;35.02;102068.25;10456821;28;20060;-60
2021/07/20 14:38:52;;;;;;;9.68;6.75;;;;;;;27.11;35.03;102058.56;10456307;28;20041;-61
2021/07/20 14:44:00;;;;;;;8.13;6.03;;;;;;;28.65;35.76;102054.91;10457468;28;20511;-62
2021/07/20 14:49:05;;;;;;;7.95;6.20;;;;;;;27.76;37.20;102052.34;10457456;28;20461;-61
2021/07/20 14:54:23;;;;;;;7.85;5.85;;;;;;;26.90;34.65;102049.16;10457099;28;20048;-62
2021/07/20 14:59:42;;;;;;;5.80;5.20;;;;;;;27.58;34.43;102047.16;10457624;28;20090;-62
2021/07/20 15:04:45;;;;;;;6.35;4.90;;;;;;;27.60;37.38;102047.81;10455784;28;20493;-62
2021/07/20 15:09:51;;;;;;;5.35;4.68;;;;;;;26.24;37.93;102048.94;10456120;28;20076;-61
2021/07/20 15:14:54;;;;;;;8.57;5.50;;;;;;;25.74;36.88;102045.09;10455549;28;20500;-61
2021/07/20 15:20:05;;;;;;;8.20;4.47;;;;;;;26.43;37.94;102042.44;10438887;28;20481;-61
2021/07/20 15:25:08;;;;;;;7.55;4.53;;;;;;;27.90;36.59;102037.31;10456128;28;20053;-61
2021/07/20 15:30:13;;;;;;;6.07;4.68;;;;;;;27.19;36.16;102032.53;10455529;28;20041;-62
2021/07/20 15:35:16;;;;;;;6.43;5.32;;;;;;;25.49;37.60;102040.56;10456504;28;20045;-61
2021/07/20 15:40:18;;;;;;;8.18;4.63;;;;;;;25.21;40.77;102029.94;10455974;28;20048;-61
2021/07/20 15:45:23;;;;;;;6.93;4.78;;;;;;;25.67;38.92;102036.00;10455873;28;20531;-63
2021/07/20 15:50:31;;;;;;;7.13;5.25;;;;;;;24.98;37.68;102033.09;10455894;28;20049;-61
2021/07/20 15:55:34;;;;;;;6.28;4.70;;;;;;;26.56;35.70;102039.28;10455214;28;20055;-61
2021/07/20 16:00:38;;;;;;;9.30;4.90;;;;;;;26.04;35.97;102036.72;10455032;28;20045;-62
2021/07/20 16:05:41;;;;;;;4.72;4.25;;;;;;;24.53;38.03;102028.56;10455438;28;20080;-62
2021/07/20 16:10:43;;;;;;;6.47;4.28;;;;;;;25.57;39.39;102033.44;10455808;28;20079;-61
2021/07/20 16:15:46;;;;;;;6.97;5.53;;;;;;;25.17;38.57;102023.22;10455700;28;20052;-61
2021/07/20 16:20:57;;;;;;;5.00;4.50;;;;;;;25.07;41.36;102028.66;10457540;28;20512;-61
2021/07/20 16:26:06;;;;;;;7.93;5.07;;;;;;;24.04;41.31;102031.50;10462347;28;20060;-62
2021/07/20 16:31:10;;;;;;;8.48;4.53;;;;;;;24.43;38.33;102027.78;10462766;28;20045;-60
2021/07/20 16:36:13;;;;;;;6.35;4.53;;;;;;;24.24;40.57;102024.22;10462935;28;20049;-61
2021/07/20 16:41:26;;;;;;;12.75;4.72;;;;;;;23.96;41.02;102025.19;10462397;28;20049;-62
2021/07/20 16:46:28;;;;;;;7.72;4.70;;;;;;;23.78;40.81;102025.06;10461176;28;20053;-60
2021/07/20 16:51:31;;;;;;;5.72;4.40;;;;;;;23.37;40.89;102020.78;10461003;28;20049;-60
2021/07/20 16:56:38;;;;;;;7.50;4.97;;;;;;;23.91;41.84;102018.44;10462020;28;20056;-59
2021/07/20 17:01:42;;;;;;;6.60;5.70;;;;;;;23.37;43.37;102026.13;10461759;28;20060;-61
2021/07/20 17:06:45;;;;;;;8.75;4.68;;;;;;;23.76;42.04;102019.88;10460233;28;20444;-61
2021/07/20 17:11:47;;;;;;;6.03;4.68;;;;;;;24.07;42.73;102031.19;10443254;28;20055;-62
2021/07/20 17:16:50;;;;;;;5.13;4.60;;;;;;;23.18;43.25;102020.78;10459583;28;20060;-61
2021/07/20 17:21:53;;;;;;;5.07;4.60;;;;;;;23.33;42.77;102022.06;10460897;28;20048;-60
2021/07/20 17:26:55;;;;;;;5.00;4.50;;;;;;;23.44;44.19;102030.91;10460327;28;20385;-60
2021/07/20 17:32:00;;;;;;;5.28;4.22;;;;;;;23.08;45.96;102026.16;10460574;28;20049;-62
2021/07/20 17:37:13;;;;;;;5.70;4.47;;;;;;;22.99;45.48;102041.13;10460446;28;20055;-62
2021/07/20 17:42:20;;;;;;;5.53;4.60;;;;;;;22.89;44.20;102036.78;10460624;28;20045;-61
2021/07/20 17:47:25;;;;;;;6.93;4.03;;;;;;;22.79;48.04;102037.59;10459677;28;20512;-61
2021/07/20 17:52:28;;;;;;;7.30;4.55;;;;;;;22.66;47.95;102060.19;10459772;28;20049;-61
2021/07/20 17:57:31;;;;;;;4.80;4.25;;;;;;;22.59;47.87;102054.56;10459206;28;20405;-61
2021/07/20 18:02:34;;;;;;;5.13;4.63;;;;;;;22.18;49.24;102057.19;10459372;28;20041;-61
2021/07/20 18:07:37;;;;;;;7.68;4.28;;;;;;;21.96;51.56;102062.72;10458747;28;20481;-60
2021/07/20 18:12:40;;;;;;;6.25;4.55;;;;;;;21.92;50.22;102063.94;10457661;28;20509;-60
2021/07/20 18:17:43;;;;;;;5.20;4.63;;;;;;;21.66;53.51;102059.84;10458310;28;20044;-61
2021/07/20 18:22:46;;;;;;;6.28;4.70;;;;;;;21.18;54.81;102060.28;10458545;28;20408;-59
2021/07/20 18:27:48;;;;;;;5.05;4.32;;;;;;;20.95;56.14;102067.53;10458110;28;20127;-60
2021/07/20 18:32:51;;;;;;;7.72;5.40;;;;;;;20.56;58.08;102070.59;10458660;28;20048;-60
2021/07/20 18:37:53;;;;;;;6.13;4.90;;;;;;;20.07;60.63;102073.59;10457543;28;20432;-60
2021/07/20 18:42:56;;;;;;;6.47;5.18;;;;;;;20.16;60.11;102075.56;10456844;28;20055;-58
2021/07/20 18:47:58;;;;;;;6.65;5.10;;;;;;;20.00;61.43;102073.22;10457453;28;20160;-60
2021/07/20 18:53:00;;;;;;;7.65;4.80;;;;;;;19.67;62.92;102065.03;10456537;28;20056;-59
2021/07/20 18:58:03;;;;;;;6.45;4.90;;;;;;;19.35;63.14;102072.78;10455646;28;20489;-60
2021/07/20 19:03:06;;;;;;;5.82;4.38;;;;;;;19.35;63.42;102067.47;10457046;28;20045;-61
2021/07/20 19:08:09;;;;;;;7.90;4.72;;;;;;;18.83;64.86;102077.47;10456780;28;20049;-60
2021/07/20 19:13:13;;;;;;;7.05;5.70;;;;;;;18.61;66.47;102085.22;10456736;28;20503;-60
2021/07/20 19:18:16;;;;;;;5.30;4.50;;;;;;;18.32;66.91;102085.47;10456188;28;20052;-60
2021/07/20 19:23:19;;;;;;;7.50;5.07;;;;;;;18.25;66.35;102089.50;10456499;28;20057;-61
2021/07/20 19:28:21;;;;;;;6.43;4.57;;;;;;;17.92;67.61;102088.22;10455064;28;20059;-61
2021/07/20 19:33:24;;;;;;;7.90;5.75;;;;;;;17.89;68.13;102091.94;10456776;28;20072;-61
2021/07/20 19:38:27;;;;;;;6.28;4.50;;;;;;;17.59;68.83;102098.31;10456081;28;20401;-61
2021/07/20 19:43:30;;;;;;;7.20;5.22;;;;;;;17.41;68.69;102104.81;10456798;28;20053;-63
2021/07/20 19:48:32;;;;;;;6.80;5.20;;;;;;;17.42;68.68;102111.81;10455891;28;20045;-61
2021/07/20 19:53:35;;;;;;;8.93;5.55;;;;;;;17.29;68.91;102105.63;10457699;28;20084;-61
2021/07/20 19:58:37;;;;;;;9.07;5.38;;;;;;;17.26;68.50;102109.31;10463923;28;20044;-60
2021/07/20 20:03:40;;;;;;;5.68;4.95;;;;;;;17.04;69.05;102118.63;10463947;28;20055;-61
2021/07/20 20:08:42;;;;;;;8.10;5.20;;;;;;;16.91;69.31;102115.06;10464271;28;20061;-61
2021/07/20 20:13:45;;;;;;;9.98;5.45;;;;;;;16.82;69.51;102111.16;10463771;28;20532;-59
2021/07/20 20:18:47;;;;;;;7.88;5.28;;;;;;;16.63;70.07;102108.00;10463148;28;20382;-60
2021/07/20 20:23:50;;;;;;;7.78;5.18;;;;;;;16.75;69.71;102109.03;10463403;28;20127;-61
2021/07/20 20:28:53;;;;;;;10.07;5.97;;;;;;;16.46;70.94;102114.34;10462836;28;20049;-60
2021/07/20 20:33:55;;;;;;;7.45;4.97;;;;;;;16.50;70.99;102110.53;10462181;28;20041;-59
2021/07/20 20:39:00;;;;;;;8.77;6.00;;;;;;;16.27;70.77;102110.16;10462399;28;20056;-60
2021/07/20 20:44:05;;;;;;;8.25;5.15;;;;;;;16.31;70.19;102116.13;10461186;28;20045;-60
2021/07/20 20:49:07;;;;;;;6.38;5.50;;;;;;;16.02;71.55;102115.19;10461898;28;20386;-60
2021/07/20 20:54:09;;;;;;;10.85;6.13;;;;;;;16.07;71.85;102121.06;10462436;28;20053;-59
2021/07/20 20:59:12;;;;;;;8.98;6.47;;;;;;;15.94;72.11;102118.31;10461835;28;20060;-59
2021/07/20 21:04:14;;;;;;;6.88;5.65;;;;;;;16.13;71.44;102131.28;10461720;28;20041;-60
2021/07/20 21:09:19;;;;;;;7.35;6.00;;;;;;;15.87;72.12;102133.69;10460721;28;20045;-59
2021/07/20 21:14:21;;;;;;;7.78;5.85;;;;;;;15.72;72.96;102132.75;10460607;28;20052;-59
2021/07/20 21:19:24;;;;;;;12.63;5.75;;;;;;;15.40;74.40;102131.97;10461174;28;20045;-59
2021/07/20 21:24:27;;;;;;;9.85;5.75;;;;;;;15.70;73.07;102131.13;10459297;28;20064;-60
2021/07/20 21:29:30;;;;;;;7.78;5.30;;;;;;;15.69;72.66;102132.91;10459721;28;20053;-59
2021/07/20 21:34:32;;;;;;;7.47;5.93;;;;;;;15.50;73.79;102133.13;10460379;28;20049;-59
2021/07/20 21:39:35;;;;;;;7.90;5.63;;;;;;;15.24;74.21;102132.78;10460264;28;20431;-61
2021/07/20 21:44:37;;;;;;;8.43;6.20;;;;;;;15.06;75.34;102136.44;10460411;28;20049;-59
2021/07/20 21:49:40;;;;;;;10.32;6.07;;;;;;;15.16;74.54;102128.88;10459919;28;20064;-60
2021/07/20 21:54:42;;;;;;;6.43;5.57;;;;;;;15.23;74.27;102133.75;10460268;28;20128;-61
2021/07/20 21:59:45;;;;;;;8.18;5.22;;;;;;;15.00;75.49;102147.34;10459867;28;20045;-59
2021/07/20 22:04:47;;;;;;;6.32;5.40;;;;;;;15.07;75.02;102138.16;10459764;28;20059;-59
2021/07/20 22:09:50;;;;;;;10.38;5.70;;;;;;;15.08;74.96;102141.66;10457603;28;20044;-60
2021/07/20 22:14:52;;;;;;;8.07;6.43;;;;;;;15.12;75.00;102141.41;10458890;28;20048;-59
2021/07/20 22:19:55;;;;;;;9.50;5.35;;;;;;;15.09;74.84;102153.91;10457686;28;20059;-60
2021/07/20 22:24:57;;;;;;;9.13;6.18;;;;;;;15.02;74.86;102148.97;10458455;28;20065;-60
2021/07/20 22:30:00;;;;;;;10.77;6.18;;;;;;;14.84;75.16;102161.38;10458182;28;20409;-59
2021/07/20 22:35:04;;;;;;;9.20;5.70;;;;;;;14.72;74.78;102156.75;10456802;28;20382;-60
2021/07/20 22:40:07;;;;;;;8.93;6.03;;;;;;;14.64;74.97;102167.72;10457228;28;20049;-61
2021/07/20 22:45:14;;;;;;;7.88;6.57;;;;;;;14.68;75.18;102168.41;10456677;28;20060;-59
2021/07/20 22:50:20;;;;;;;9.95;6.25;;;;;;;14.55;76.22;102167.31;10457241;28;20484;-60
2021/07/20 22:55:23;;;;;;;8.55;5.45;;;;;;;14.62;75.46;102168.72;10458089;28;20049;-61
2021/07/20 23:00:32;;;;;;;9.95;5.78;;;;;;;14.63;75.00;102171.25;10457264;28;20048;-60
2021/07/20 23:05:35;;;;;;;7.97;6.15;;;;;;;14.61;74.49;102170.50;10457195;28;20487;-59
2021/07/20 23:10:42;;;;;;;10.57;6.30;;;;;;;14.45;75.54;102178.31;10456914;28;20056;-59
2021/07/20 23:15:45;;;;;;;9.77;6.75;;;;;;;14.35;75.25;102163.91;10455693;28;20041;-59
2021/07/20 23:20:48;;;;;;;9.82;6.20;;;;;;;14.46;75.87;102166.00;10456473;28;20405;-59